Grand Island, Florida
Current Conditions -  °F | °C
As of 2:53 PM on Saturday 25 Oct 2014 (Local Time) from KLEE Reporting Station
Clear Clear  
Wind Chill: 78°   Ceiling: Unl
Heat Index: 78°   Visibility: 10mi
Dew Point: 47°   Wind: 8mph
Humidity: 33%   Direction: 340°NNW
Pressure: 29.97"   Gusts: NA
Location:  28.88°N, 81.73°W
Report Text: KLEE 251853Z 34007KT 10SM CLR 26/08 A2997 RMK AO2 SLP147 T02560083
Loading
Personal Weather Stations






























Interactive Weather Map
Tropical Storm Tracking
New forecast layout! Learn more

10-Day Weather Forecast

Advertisements
Track Severe Weather on mobile